Time;durP1;ratioP1;P1;durP2;ratioP2;P2;SDS_P1;SDS_P2;PMS_P1;PMS_P2;Temp;Humidity;BMP_temperature;BMP_pressure;BME280_temperature;BME280_humidity;BME280_pressure;Samples;Min_cycle;Max_cycle;Signal;HPM_P1;HPM_P2
2022/03/23 00:01:46;;;;;;;;;;;;;;;18.96;43.64;103060.28;5127532;28;20307;-55
2022/03/23 00:04:11;;;;;;;;;;;;;;;18.94;43.77;103060.41;5127419;28;19907;-55
2022/03/23 00:06:36;;;;;;;;;;;;;;;18.95;43.57;103058.59;5127033;28;20321;-54
2022/03/23 00:09:01;;;;;;;;;;;;;;;18.94;43.71;103062.22;5127254;28;19916;-54
2022/03/23 00:11:27;;;;;;;;;;;;;;;18.93;43.86;103061.38;5127043;28;19912;-55
2022/03/23 00:13:53;;;;;;;;;;;;;;;18.92;43.79;103054.28;5127571;28;19908;-54
2022/03/23 00:16:18;;;;;;;;;;;;;;;18.92;43.93;103059.66;5127039;28;19915;-54
2022/03/23 00:18:43;;;;;;;;;;;;;;;18.91;43.67;103054.41;5127149;28;19915;-54
2022/03/23 00:21:09;;;;;;;;;;;;;;;18.90;43.56;103053.53;5126985;28;19915;-50
2022/03/23 00:23:34;;;;;;;;;;;;;;;18.90;43.74;103067.03;5126969;28;19923;-53
2022/03/23 00:25:59;;;;;;;;;;;;;;;18.90;43.56;103063.44;5126685;28;20367;-51
2022/03/23 00:28:25;;;;;;;;;;;;;;;18.89;43.58;103061.72;5127140;28;19961;-54
2022/03/23 00:30:50;;;;;;;;;;;;;;;18.88;43.55;103062.72;5127243;28;19929;-53
2022/03/23 00:33:15;;;;;;;;;;;;;;;18.88;43.55;103066.25;5126923;28;19961;-53
2022/03/23 00:35:41;;;;;;;;;;;;;;;18.87;43.45;103061.00;5115678;28;19908;-55
2022/03/23 00:38:06;;;;;;;;;;;;;;;18.87;43.41;103061.00;5106308;28;19943;-51
2022/03/23 00:40:31;;;;;;;;;;;;;;;18.86;43.67;103059.25;5106046;28;19967;-56
2022/03/23 00:42:58;;;;;;;;;;;;;;;18.86;43.56;103061.94;5106559;28;20440;-55
2022/03/23 00:45:23;;;;;;;;;;;;;;;18.85;43.58;103058.41;5120175;28;19912;-51
2022/03/23 00:47:48;;;;;;;;;;;;;;;18.83;43.53;103054.97;5106000;28;19916;-54
2022/03/23 00:50:14;;;;;;;;;;;;;;;18.84;43.39;103058.53;5126163;28;19908;-53
2022/03/23 00:52:39;;;;;;;;;;;;;;;18.83;43.34;103054.13;5124541;28;19903;-53
2022/03/23 00:55:08;;;;;;;;;;;;;;;18.82;43.51;103058.66;5126174;28;19934;-54
2022/03/23 00:57:33;;;;;;;;;;;;;;;18.82;43.36;103055.06;5125434;28;20002;-55
2022/03/23 00:59:58;;;;;;;;;;;;;;;18.81;43.29;103054.22;5125410;28;19907;-54
2022/03/23 01:02:23;;;;;;;;;;;;;;;18.81;43.34;103051.53;5106298;28;19922;-55
2022/03/23 01:04:48;;;;;;;;;;;;;;;18.80;43.23;103052.50;5105674;28;19908;-54
2022/03/23 01:07:13;;;;;;;;;;;;;;;18.79;43.10;103044.53;5106177;28;19919;-54
2022/03/23 01:09:39;;;;;;;;;;;;;;;18.78;43.11;103043.69;5104220;28;19919;-54
2022/03/23 01:12:04;;;;;;;;;;;;;;;18.78;43.16;103048.22;5105463;28;19954;-54
2022/03/23 01:14:29;;;;;;;;;;;;;;;18.77;43.38;103044.66;5105834;28;20360;-53
2022/03/23 01:16:54;;;;;;;;;;;;;;;18.76;43.18;103042.94;5116043;28;19919;-54
2022/03/23 01:19:25;;;;;;;;;;;;;;;18.76;43.18;103036.69;5124827;28;19972;-55
2022/03/23 01:21:50;;;;;;;;;;;;;;;18.75;43.16;103041.22;5104960;28;19908;-55
2022/03/23 01:24:15;;;;;;;;;;;;;;;18.74;43.05;103044.91;5105839;28;19937;-51
2022/03/23 01:26:41;;;;;;;;;;;;;;;18.74;43.21;103036.81;5105195;28;19914;-51
2022/03/23 01:29:06;;;;;;;;;;;;;;;18.73;43.00;103046.75;5087380;28;19912;-52
2022/03/23 01:31:31;;;;;;;;;;;;;;;18.72;43.01;103041.44;5105724;28;19947;-55
2022/03/23 01:33:59;;;;;;;;;;;;;;;18.71;43.06;103045.13;5105613;28;20334;-52
2022/03/23 01:36:25;;;;;;;;;;;;;;;18.70;43.21;103044.25;5121993;28;19912;-53
2022/03/23 01:38:50;;;;;;;;;;;;;;;18.69;43.04;103045.25;5125566;28;19915;-56
2022/03/23 01:41:15;;;;;;;;;;;;;;;18.68;43.16;103043.47;5125371;28;19912;-54
2022/03/23 01:43:40;;;;;;;;;;;;;;;18.68;42.97;103040.78;5125790;28;19926;-56
2022/03/23 01:46:05;;;;;;;;;;;;;;;18.68;43.17;103037.22;5125160;28;19973;-56
2022/03/23 01:48:31;;;;;;;;;;;;;;;18.68;42.94;103042.63;5125669;28;19911;-54
2022/03/23 01:50:56;;;;;;;;;;;;;;;18.66;42.86;103031.97;5125086;28;19908;-55
2022/03/23 01:53:21;;;;;;;;;;;;;;;18.66;43.10;103033.81;5125933;28;20039;-54
2022/03/23 01:55:47;;;;;;;;;;;;;;;18.66;43.05;103033.81;5124806;28;19998;-54
2022/03/23 01:58:12;;;;;;;;;;;;;;;18.64;42.86;103033.91;5125354;28;20314;-52
2022/03/23 02:00:38;;;;;;;;;;;;;;;18.64;43.00;103033.91;5124197;28;19908;-56
2022/03/23 02:03:04;;;;;;;;;;;;;;;18.63;43.05;103031.31;5123808;28;19911;-53
2022/03/23 02:05:29;;;;;;;;;;;;;;;18.63;42.97;103034.03;5124957;28;19908;-55
2022/03/23 02:07:55;;;;;;;;;;;;;;;18.61;42.81;103030.59;5125464;28;20014;-54
2022/03/23 02:10:20;;;;;;;;;;;;;;;18.61;42.93;103030.59;5124607;28;19912;-52
2022/03/23 02:12:45;;;;;;;;;;;;;;;18.61;42.95;103025.22;5125155;28;19908;-52
2022/03/23 02:15:14;;;;;;;;;;;;;;;18.60;42.78;103029.72;5125240;28;19971;-53
2022/03/23 02:17:39;;;;;;;;;;;;;;;18.59;42.94;103021.75;5124457;28;20478;-55
2022/03/23 02:20:05;;;;;;;;;;;;;;;18.58;42.81;103022.75;5124875;28;20392;-54
2022/03/23 02:22:31;;;;;;;;;;;;;;;18.58;42.86;103022.75;5124841;28;19915;-56
2022/03/23 02:24:56;;;;;;;;;;;;;;;18.57;42.87;103023.72;5124382;28;20002;-55
2022/03/23 02:27:21;;;;;;;;;;;;;;;18.55;42.72;103029.19;5124006;28;19912;-55
2022/03/23 02:29:46;;;;;;;;;;;;;;;18.55;42.85;103025.66;5124843;28;19919;-54
2022/03/23 02:32:13;;;;;;;;;;;;;;;18.54;42.77;103026.63;5124963;28;19907;-55
2022/03/23 02:34:38;;;;;;;;;;;;;;;18.53;42.89;103020.38;5124844;28;19946;-54
2022/03/23 02:37:04;;;;;;;;;;;;;;;18.53;42.72;103022.22;5124349;28;20088;-55
2022/03/23 02:39:29;;;;;;;;;;;;;;;18.52;42.65;103018.69;5124707;28;19908;-55
2022/03/23 02:41:56;;;;;;;;;;;;;;;18.51;42.65;103025.00;5123883;28;20352;-53
2022/03/23 02:44:21;;;;;;;;;;;;;;;18.50;42.58;103023.31;5124712;28;20834;-55
2022/03/23 02:46:46;;;;;;;;;;;;;;;18.49;42.89;103021.59;5124551;28;19914;-53
2022/03/23 02:49:12;;;;;;;;;;;;;;;18.49;42.80;103024.28;5124550;28;19998;-56
2022/03/23 02:51:37;;;;;;;;;;;;;;;18.47;42.64;103023.53;5122966;28;19908;-55
2022/03/23 03:02:29;;;;;;;;;;;;;;;18.45;42.50;103025.50;5129506;28;19933;-55
2022/03/23 03:04:54;;;;;;;;;;;;;;;18.44;42.48;103030.03;5123032;28;19911;-54
2022/03/23 03:07:19;;;;;;;;;;;;;;;18.43;42.54;103027.41;5124434;28;19912;-54
2022/03/23 03:09:45;;;;;;;;;;;;;;;18.41;42.45;103024.84;5124054;28;19919;-56
2022/03/23 03:12:11;;;;;;;;;;;;;;;18.40;42.57;103031.22;5123900;28;20264;-54
2022/03/23 03:14:36;;;;;;;;;;;;;;;18.39;42.59;103026.81;5124607;28;19978;-54
2022/03/23 03:17:01;;;;;;;;;;;;;;;18.39;42.67;103026.81;5127817;28;19912;-52
2022/03/23 03:19:26;;;;;;;;;;;;;;;18.38;42.71;103033.16;5128696;27;19929;-49
2022/03/23 03:21:52;;;;;;;;;;;;;;;18.38;42.38;103032.28;5128104;28;19915;-55
2022/03/23 03:24:18;;;;;;;;;;;;;;;18.37;42.40;103033.28;5127142;28;19916;-55
2022/03/23 03:26:44;;;;;;;;;;;;;;;18.37;42.54;103038.66;5127834;28;19911;-51
2022/03/23 03:29:09;;;;;;;;;;;;;;;18.35;42.57;103030.72;5128312;28;19911;-51
2022/03/23 03:31:35;;;;;;;;;;;;;;;18.36;42.33;103036.94;5128556;28;19952;-54
2022/03/23 03:34:00;;;;;;;;;;;;;;;18.35;42.38;103033.41;5128359;28;19919;-54
2022/03/23 03:36:25;;;;;;;;;;;;;;;18.35;42.44;103030.72;5110450;27;19908;-55
2022/03/23 03:38:50;;;;;;;;;;;;;;;18.34;42.35;103030.81;5107350;28;19907;-53
2022/03/23 03:41:16;;;;;;;;;;;;;;;18.33;42.28;103031.78;5107505;28;19911;-55
2022/03/23 03:43:42;;;;;;;;;;;;;;;18.32;42.23;103028.22;5126768;28;19912;-55
2022/03/23 03:46:07;;;;;;;;;;;;;;;18.32;42.38;103035.47;5117534;27;20041;-56
2022/03/23 03:48:33;;;;;;;;;;;;;;;18.23;42.33;103026.22;5107553;28;19912;-52
2022/03/23 03:50:59;;;;;;;;;;;;;;;18.31;42.36;103033.72;5106977;28;19915;-56
2022/03/23 03:53:24;;;;;;;;;;;;;;;18.30;42.14;103035.53;5107721;28;19911;-55
2022/03/23 03:55:49;;;;;;;;;;;;;;;18.30;42.29;103034.69;5123646;28;19918;-54
2022/03/23 03:58:17;;;;;;;;;;;;;;;18.28;42.33;103034.81;5127699;27;19942;-50
2022/03/23 04:00:42;;;;;;;;;;;;;;;18.28;42.21;103040.19;5127899;28;19918;-53
2022/03/23 04:03:07;;;;;;;;;;;;;;;18.27;42.18;103043.88;5127670;28;20400;-53
2022/03/23 04:05:33;;;;;;;;;;;;;;;18.27;42.12;103038.50;5126199;28;19907;-56
2022/03/23 04:07:58;;;;;;;;;;;;;;;18.27;42.18;103045.72;5126410;28;19912;-54
2022/03/23 04:10:24;;;;;;;;;;;;;;;18.26;42.07;103049.34;5126934;28;19911;-54
2022/03/23 04:12:50;;;;;;;;;;;;;;;18.24;42.10;103042.25;5127347;28;19919;-51
2022/03/23 04:15:15;;;;;;;;;;;;;;;18.25;42.13;103043.09;5127615;28;19908;-53
2022/03/23 04:17:40;;;;;;;;;;;;;;;18.24;42.02;103047.63;5127262;28;19907;-49
2022/03/23 04:20:06;;;;;;;;;;;;;;;18.24;42.09;103046.78;5127063;28;19934;-54
2022/03/23 04:22:31;;;;;;;;;;;;;;;18.23;42.04;103045.94;5127535;28;19903;-52
2022/03/23 04:24:56;;;;;;;;;;;;;;;18.23;41.90;103042.38;5127025;28;19907;-52
2022/03/23 04:27:21;;;;;;;;;;;;;;;18.22;41.82;103046.91;5126851;28;19923;-53
2022/03/23 04:29:47;;;;;;;;;;;;;;;18.22;41.75;103043.31;5127122;28;19918;-55
2022/03/23 04:32:12;;;;;;;;;;;;;;;18.21;41.75;103055.94;5127234;28;19969;-52
2022/03/23 04:34:37;;;;;;;;;;;;;;;18.19;41.70;103049.81;5127018;28;20366;-52
2022/03/23 04:37:02;;;;;;;;;;;;;;;18.20;41.72;103048.84;5126804;28;19915;-54
2022/03/23 04:39:28;;;;;;;;;;;;;;;18.20;41.79;103048.84;5126910;28;19912;-52
2022/03/23 04:41:56;;;;;;;;;;;;;;;18.19;41.79;103052.50;5125422;28;19907;-55
2022/03/23 04:44:21;;;;;;;;;;;;;;;18.19;41.75;103054.34;5127002;28;19950;-52
2022/03/23 04:46:46;;;;;;;;;;;;;;;18.18;41.66;103057.97;5111272;28;19908;-50
2022/03/23 04:49:13;;;;;;;;;;;;;;;18.16;41.49;103050.03;5126839;28;19912;-56
2022/03/23 04:51:38;;;;;;;;;;;;;;;18.17;41.67;103050.88;5126225;28;19908;-54
2022/03/23 04:54:04;;;;;;;;;;;;;;;18.17;41.58;103053.56;5118469;28;19911;-52
2022/03/23 04:56:29;;;;;;;;;;;;;;;18.16;41.36;103059.94;5105617;28;19908;-51
2022/03/23 04:58:54;;;;;;;;;;;;;;;18.16;41.35;103054.56;5122186;28;19947;-52
2022/03/23 05:01:20;;;;;;;;;;;;;;;18.15;41.46;103064.47;5114598;28;19916;-52
2022/03/23 05:03:46;;;;;;;;;;;;;;;18.14;41.37;103060.06;5107063;27;20433;-54
2022/03/23 05:06:11;;;;;;;;;;;;;;;18.14;41.35;103061.91;5105023;28;19919;-54
2022/03/23 05:08:36;;;;;;;;;;;;;;;18.14;41.41;103061.91;5124486;28;20009;-55
2022/03/23 05:11:01;;;;;;;;;;;;;;;18.12;41.31;103064.69;5122826;28;19975;-55
2022/03/23 05:13:26;;;;;;;;;;;;;;;18.11;41.48;103062.97;5105871;28;19908;-54
2022/03/23 05:15:51;;;;;;;;;;;;;;;18.11;41.48;103062.97;5105704;28;19918;-54
2022/03/23 05:18:17;;;;;;;;;;;;;;;18.10;41.48;103063.94;5113376;28;19911;-53
2022/03/23 05:20:42;;;;;;;;;;;;;;;18.09;41.44;103067.59;5105132;28;19908;-56
2022/03/23 05:23:07;;;;;;;;;;;;;;;18.09;41.34;103066.72;5111417;28;19920;-54
2022/03/23 05:25:32;;;;;;;;;;;;;;;18.08;41.32;103065.88;5125091;28;19952;-54
2022/03/23 05:27:58;;;;;;;;;;;;;;;18.08;41.28;103056.94;5125322;28;19950;-54
2022/03/23 05:30:23;;;;;;;;;;;;;;;18.07;41.20;103061.47;5106525;28;19908;-54
2022/03/23 05:32:48;;;;;;;;;;;;;;;18.07;41.29;103060.63;5110554;28;19912;-55
2022/03/23 05:35:14;;;;;;;;;;;;;;;18.06;41.29;103059.75;5121050;28;19938;-51
2022/03/23 05:37:39;;;;;;;;;;;;;;;18.06;41.21;103070.53;5105161;28;19914;-53
2022/03/23 05:40:05;;;;;;;;;;;;;;;18.05;41.22;103065.22;5102563;28;19923;-55
2022/03/23 05:42:30;;;;;;;;;;;;;;;18.04;41.16;103074.28;5122476;28;19976;-54
2022/03/23 05:44:55;;;;;;;;;;;;;;;18.04;41.22;103077.84;5118164;28;19907;-56
2022/03/23 05:47:21;;;;;;;;;;;;;;;18.04;41.25;103074.28;5124967;28;20364;-54
2022/03/23 05:49:46;;;;;;;;;;;;;;;18.03;41.10;103078.81;5124574;28;19972;-52
2022/03/23 05:52:11;;;;;;;;;;;;;;;18.03;41.21;103073.44;5116455;28;19912;-53
2022/03/23 05:54:36;;;;;;;;;;;;;;;18.03;41.18;103080.66;5123732;28;19985;-54
2022/03/23 05:57:02;;;;;;;;;;;;;;;18.02;41.07;103078.94;5124164;28;19907;-55
2022/03/23 05:59:28;;;;;;;;;;;;;;;18.01;41.01;103086.16;5123283;28;19915;-56
2022/03/23 06:01:53;;;;;;;;;;;;;;;18.01;41.17;103087.94;5124772;28;19953;-56
2022/03/23 06:04:18;;;;;;;;;;;;;;;18.00;41.40;103087.09;5124509;28;19947;-55
2022/03/23 06:06:43;;;;;;;;;;;;;;;17.99;41.64;103093.47;5114618;28;19911;-57
2022/03/23 06:09:08;;;;;;;;;;;;;;;17.97;41.69;103093.56;5124956;28;19919;-55
2022/03/23 06:11:34;;;;;;;;;;;;;;;17.95;41.78;103089.25;5124544;28;19911;-57
2022/03/23 06:13:59;;;;;;;;;;;;;;;17.94;42.12;103092.94;5125003;28;19929;-55
2022/03/23 06:16:24;;;;;;;;;;;;;;;17.92;42.04;103094.84;5124686;28;19911;-54
2022/03/23 06:18:49;;;;;;;;;;;;;;;17.92;42.12;103097.53;5122148;28;19980;-55
2022/03/23 06:21:14;;;;;;;;;;;;;;;17.91;42.14;103098.53;5118156;28;19916;-56
2022/03/23 06:23:39;;;;;;;;;;;;;;;17.89;42.41;103098.66;5124595;28;19927;-54
2022/03/23 06:26:05;;;;;;;;;;;;;;;17.89;42.49;103103.16;5123650;28;19929;-55
2022/03/23 06:28:30;;;;;;;;;;;;;;;17.78;42.92;103090.47;5124349;28;19920;-55
2022/03/23 06:30:55;;;;;;;;;;;;;;;17.83;43.15;103103.59;5121883;28;19915;-52
2022/03/23 06:33:20;;;;;;;;;;;;;;;17.80;43.39;103112.75;5124727;28;19908;-54
2022/03/23 06:35:46;;;;;;;;;;;;;;;17.78;43.63;103119.19;5124419;28;19914;-53
2022/03/23 06:38:11;;;;;;;;;;;;;;;17.74;43.87;103114.03;5124725;28;20041;-53
2022/03/23 06:40:37;;;;;;;;;;;;;;;17.73;43.72;103116.81;5124421;28;19915;-55
2022/03/23 06:43:02;;;;;;;;;;;;;;;17.70;43.94;103115.16;5124687;28;20014;-55
2022/03/23 06:45:27;;;;;;;;;;;;;;;17.67;44.07;103120.78;5117844;28;19952;-52
2022/03/23 06:47:52;;;;;;;;;;;;;;;17.65;43.92;103117.31;5105407;28;19979;-54
2022/03/23 06:50:17;;;;;;;;;;;;;;;17.64;43.99;103118.31;5102890;28;19908;-52
2022/03/23 06:52:42;;;;;;;;;;;;;;;17.63;44.00;103124.66;5122261;28;19904;-56
2022/03/23 06:55:08;;;;;;;;;;;;;;;17.63;43.66;103121.09;5124132;28;19969;-54
2022/03/23 06:57:33;;;;;;;;;;;;;;;17.64;43.44;103120.13;5122772;28;19947;-58
2022/03/23 06:59:58;;;;;;;;;;;;;;;17.64;43.27;103126.38;5124495;28;20391;-56
2022/03/23 07:02:23;;;;;;;;;;;;;;;17.66;43.22;103127.13;5124067;28;19915;-56
2022/03/23 07:04:49;;;;;;;;;;;;;;;17.67;43.21;103128.84;5124445;28;19915;-52
2022/03/23 07:07:14;;;;;;;;;;;;;;;17.69;43.17;103132.28;5123735;28;19964;-57
2022/03/23 07:09:40;;;;;;;;;;;;;;;17.70;42.77;103127.75;5123626;28;19920;-55
2022/03/23 07:12:07;;;;;;;;;;;;;;;17.71;42.86;103138.44;5089344;28;19919;-53
2022/03/23 07:14:33;;;;;;;;;;;;;;;17.72;42.74;103129.41;5118790;28;19941;-56
2022/03/23 07:16:58;;;;;;;;;;;;;;;17.76;42.73;103137.28;5123552;28;19911;-56
2022/03/23 07:19:23;;;;;;;;;;;;;;;17.78;42.61;103135.34;5122769;28;19934;-55
2022/03/23 07:21:49;;;;;;;;;;;;;;;17.78;42.64;103136.19;5123205;28;19939;-54
2022/03/23 07:24:14;;;;;;;;;;;;;;;17.80;42.60;103136.09;5123725;28;19941;-52
2022/03/23 07:26:40;;;;;;;;;;;;;;;17.82;42.42;103139.53;5123509;28;19918;-55
2022/03/23 07:29:05;;;;;;;;;;;;;;;17.82;42.54;103136.84;5123994;28;19911;-57
2022/03/23 07:31:30;;;;;;;;;;;;;;;17.83;42.22;103142.13;5123717;28;19907;-56
2022/03/23 07:33:57;;;;;;;;;;;;;;;17.85;42.41;103140.19;5123741;28;19907;-55
2022/03/23 07:36:22;;;;;;;;;;;;;;;17.86;42.07;103135.66;5123557;28;19938;-58
2022/03/23 07:38:47;;;;;;;;;;;;;;;17.87;42.08;103143.63;5122781;28;19912;-56
2022/03/23 07:41:12;;;;;;;;;;;;;;;17.88;42.02;103153.44;5121322;28;19966;-57
2022/03/23 07:43:38;;;;;;;;;;;;;;;17.90;42.12;103142.56;5107958;28;19907;-58
2022/03/23 07:46:03;;;;;;;;;;;;;;;17.90;41.85;103151.50;5111646;28;19922;-57
2022/03/23 07:48:28;;;;;;;;;;;;;;;17.90;42.06;103151.50;5104131;28;19912;-56
2022/03/23 07:50:53;;;;;;;;;;;;;;;17.90;42.08;103154.19;5111842;28;19912;-55
2022/03/23 07:53:19;;;;;;;;;;;;;;;17.91;42.15;103153.22;5123863;28;19911;-53
2022/03/23 07:55:44;;;;;;;;;;;;;;;17.91;42.14;103152.34;5122741;28;20661;-55
2022/03/23 07:58:09;;;;;;;;;;;;;;;17.89;42.33;103155.16;5123618;28;19907;-57
2022/03/23 08:00:35;;;;;;;;;;;;;;;17.89;42.07;103157.84;5122748;28;19916;-55
2022/03/23 08:03:00;;;;;;;;;;;;;;;17.88;42.28;103163.31;5126610;28;19919;-55
2022/03/23 08:05:25;;;;;;;;;;;;;;;17.86;42.27;103154.50;5127136;28;19943;-56
2022/03/23 08:07:50;;;;;;;;;;;;;;;17.85;42.48;103164.41;5126983;28;19914;-55
2022/03/23 08:10:16;;;;;;;;;;;;;;;17.84;42.58;103157.31;5126526;28;19982;-56
2022/03/23 08:12:41;;;;;;;;;;;;;;;17.82;42.82;103159.25;5126596;28;20355;-55
2022/03/23 08:15:07;;;;;;;;;;;;;;;17.81;42.70;103165.59;5127389;28;19911;-56
2022/03/23 08:17:32;;;;;;;;;;;;;;;17.80;42.98;103171.94;5127194;28;19908;-54
2022/03/23 08:22:41;;;;;;;;;;;;;;;17.79;43.00;103167.50;5125996;28;19998;-54
2022/03/23 08:25:06;;;;;;;;;;;;;;;17.80;42.86;103161.19;5126663;28;19941;-56
2022/03/23 08:27:31;;;;;;;;;;;;;;;17.81;43.12;103167.44;5127090;27;19914;-55
2022/03/23 08:29:57;;;;;;;;;;;;;;;17.82;43.14;103161.06;5126794;28;19991;-58
2022/03/23 08:32:22;;;;;;;;;;;;;;;17.83;43.01;103169.03;5126821;28;19979;-55
2022/03/23 08:34:48;;;;;;;;;;;;;;;17.84;42.95;103157.31;5126846;28;19908;-55
2022/03/23 08:37:13;;;;;;;;;;;;;;;17.85;42.96;103155.47;5126593;28;19911;-49
2022/03/23 08:39:39;;;;;;;;;;;;;;;17.86;43.16;103165.28;5126839;28;19915;-54
2022/03/23 08:42:05;;;;;;;;;;;;;;;17.86;43.14;103159.88;5126075;28;19927;-53
2022/03/23 08:44:31;;;;;;;;;;;;;;;17.87;43.14;103164.28;5127020;27;19914;-51
2022/03/23 08:46:56;;;;;;;;;;;;;;;17.86;43.42;103162.59;5126096;28;19968;-53
2022/03/23 08:49:21;;;;;;;;;;;;;;;17.85;43.35;103161.72;5126629;28;20363;-55
2022/03/23 08:51:46;;;;;;;;;;;;;;;17.85;43.53;103166.25;5125854;28;19942;-53
2022/03/23 08:54:11;;;;;;;;;;;;;;;17.83;43.33;103163.63;5126828;28;19934;-50
2022/03/23 08:56:37;;;;;;;;;;;;;;;17.83;43.42;103158.25;5125557;28;19984;-51
2022/03/23 08:59:02;;;;;;;;;;;;;;;17.84;43.49;103162.69;5126546;28;19916;-57
2022/03/23 09:01:27;;;;;;;;;;;;;;;17.84;43.41;103162.69;5125936;28;19908;-58
2022/03/23 09:03:53;;;;;;;;;;;;;;;17.85;43.22;103161.72;5125827;27;19912;-56
2022/03/23 09:06:18;;;;;;;;;;;;;;;17.87;43.28;103167.00;5125821;28;19947;-49
2022/03/23 09:08:44;;;;;;;;;;;;;;;17.89;43.08;103165.06;5125605;28;19920;-54
2022/03/23 09:11:09;;;;;;;;;;;;;;;17.89;43.07;103168.63;5125604;28;20380;-54
2022/03/23 09:13:34;;;;;;;;;;;;;;;17.90;43.07;103164.09;5125509;28;19916;-54
2022/03/23 09:15:59;;;;;;;;;;;;;;;17.90;43.21;103164.94;5125934;28;19908;-50
2022/03/23 09:18:26;;;;;;;;;;;;;;;17.92;43.10;103170.22;5126088;28;19964;-60
2022/03/23 09:20:51;;;;;;;;;;;;;;;17.92;43.13;103167.53;5125243;28;19912;-60
2022/03/23 09:23:17;;;;;;;;;;;;;;;17.92;43.18;103168.38;5125816;27;19969;-60
2022/03/23 09:25:42;;;;;;;;;;;;;;;17.93;43.16;103170.13;5125483;28;19977;-61
2022/03/23 09:28:07;;;;;;;;;;;;;;;17.93;43.08;103169.28;5125836;28;19912;-61
2022/03/23 09:30:32;;;;;;;;;;;;;;;17.92;43.28;103163.00;5125651;28;19933;-59
2022/03/23 09:32:57;;;;;;;;;;;;;;;17.94;43.17;103160.22;5120477;28;19920;-62
2022/03/23 09:35:23;;;;;;;;;;;;;;;17.94;43.09;103162.91;5122536;28;20013;-58
2022/03/23 09:37:48;;;;;;;;;;;;;;;17.93;43.11;103162.06;5125431;28;19903;-58
2022/03/23 09:40:17;;;;;;;;;;;;;;;17.93;43.29;103159.34;5124671;28;19915;-61
2022/03/23 09:42:43;;;;;;;;;;;;;;;17.93;43.30;103159.34;5125458;28;19912;-59
2022/03/23 09:45:09;;;;;;;;;;;;;;;17.94;43.09;103162.91;5125299;28;19911;-58
2022/03/23 09:47:36;;;;;;;;;;;;;;;17.94;43.22;103165.59;5124291;28;20114;-61
2022/03/23 09:50:01;;;;;;;;;;;;;;;17.94;43.40;103161.06;5125262;28;19935;-62
2022/03/23 09:52:27;;;;;;;;;;;;;;;17.94;43.25;103161.06;5124976;28;20283;-60
2022/03/23 09:54:52;;;;;;;;;;;;;;;17.93;43.25;103159.34;5125624;28;19912;-59
2022/03/23 09:57:17;;;;;;;;;;;;;;;17.93;43.41;103156.66;5124950;28;19911;-60
2022/03/23 09:59:42;;;;;;;;;;;;;;;17.94;43.22;103161.06;5125022;28;19912;-55
2022/03/23 10:02:08;;;;;;;;;;;;;;;17.93;43.33;103159.34;5125146;28;19908;-60
2022/03/23 10:04:52;;;;;;;;;;;;;;;17.94;43.54;103162.91;5124930;28;19914;-59
2022/03/23 10:07:26;;;;;;;;;;;;;;;17.92;43.44;103154.91;5124776;28;19918;-59
2022/03/23 10:10:26;;;;;;;;;;;;;;;17.93;43.47;103159.34;5124296;28;19916;-59
2022/03/23 10:13:17;;;;;;;;;;;;;;;17.92;43.51;103154.91;5124698;28;19908;-59
2022/03/23 10:16:08;;;;;;;;;;;;;;;17.92;43.55;103154.91;5124895;28;19982;-60
2022/03/23 10:18:49;;;;;;;;;;;;;;;17.92;43.61;103159.44;5125324;28;19912;-59
2022/03/23 10:21:14;;;;;;;;;;;;;;;17.92;43.38;103146.00;5124269;28;19911;-59
2022/03/23 10:23:49;;;;;;;;;;;;;;;17.93;43.44;103148.59;5125019;28;19938;-59
2022/03/23 10:26:14;;;;;;;;;;;;;;;17.92;43.41;103141.47;5124156;28;19915;-59
2022/03/23 10:28:39;;;;;;;;;;;;;;;17.92;43.21;103141.47;5124594;28;19962;-59
2022/03/23 10:31:15;;;;;;;;;;;;;;;17.93;43.44;103137.81;5123351;28;19911;-59
2022/03/23 10:33:41;;;;;;;;;;;;;;;17.93;43.61;103137.81;5124873;27;19919;-59
2022/03/23 10:36:06;;;;;;;;;;;;;;;17.94;43.51;103144.06;5124029;28;19912;-60
2022/03/23 10:38:36;;;;;;;;;;;;;;;17.93;43.47;103142.34;5124060;28;19911;-59
2022/03/23 10:41:01;;;;;;;;;;;;;;;17.93;43.50;103132.44;5124071;28;19932;-59
2022/03/23 10:43:37;;;;;;;;;;;;;;;17.94;43.42;103136.00;5123281;28;20026;-60
2022/03/23 10:46:11;;;;;;;;;;;;;;;17.95;43.38;103133.19;5111786;28;20035;-59
2022/03/23 10:48:37;;;;;;;;;;;;;;;17.95;43.41;103124.25;5124183;28;19928;-59
2022/03/23 10:51:02;;;;;;;;;;;;;;;17.96;43.13;103129.50;5122771;28;19976;-60
2022/03/23 10:53:35;;;;;;;;;;;;;;;17.97;43.03;103122.34;5124692;28;19930;-59
2022/03/23 10:56:00;;;;;;;;;;;;;;;17.97;43.28;103123.19;5122640;28;19908;-59
2022/03/23 10:58:26;;;;;;;;;;;;;;;17.98;43.17;103116.81;5124240;28;19918;-59
2022/03/23 11:01:09;;;;;;;;;;;;;;;18.00;42.99;103122.09;5123989;28;19911;-59
2022/03/23 11:03:52;;;;;;;;;;;;;;;18.01;42.78;103117.56;5123512;28;20356;-59
2022/03/23 11:06:23;;;;;;;;;;;;;;;18.02;42.99;103113.94;5122121;28;19922;-59
2022/03/23 11:08:49;;;;;;;;;;;;;;;18.03;43.00;103113.81;5119343;28;19922;-59
2022/03/23 11:16:50;;;;;;;;;;;;;;;18.07;42.91;103115.31;5121953;28;19977;-59
2022/03/23 11:19:17;;;;;;;;;;;;;;;18.09;42.95;103112.50;5122694;28;20508;-58
2022/03/23 11:21:56;;;;;;;;;;;;;;;18.09;42.92;103109.81;5123032;28;19958;-58
2022/03/23 11:24:21;;;;;;;;;;;;;;;18.10;42.90;103109.72;5123946;28;19986;-58
2022/03/23 11:26:46;;;;;;;;;;;;;;;18.10;42.84;103107.03;5119211;28;19933;-58
2022/03/23 11:29:12;;;;;;;;;;;;;;;18.12;42.97;103105.06;5116909;28;19911;-58
2022/03/23 11:31:39;;;;;;;;;;;;;;;18.13;43.10;103106.78;5123354;28;19911;-59
2022/03/23 11:34:04;;;;;;;;;;;;;;;18.14;42.97;103102.28;5122994;28;19907;-58
2022/03/23 11:36:29;;;;;;;;;;;;;;;18.15;43.05;103104.00;5122816;28;19918;-58
2022/03/23 11:38:59;;;;;;;;;;;;;;;18.15;43.06;103099.47;5127664;28;19916;-58
2022/03/23 11:41:24;;;;;;;;;;;;;;;18.16;43.37;103095.81;5126170;28;20349;-58
2022/03/23 11:43:49;;;;;;;;;;;;;;;18.17;43.33;103089.44;5128064;28;19912;-58
2022/03/23 11:46:15;;;;;;;;;;;;;;;18.19;43.34;103089.34;5126639;28;19927;-58
2022/03/23 11:48:58;;;;;;;;;;;;;;;18.19;43.34;103089.34;5126301;28;19912;-58
2022/03/23 11:51:47;;;;;;;;;;;;;;;18.21;43.61;103084.69;5125556;28;19919;-58
2022/03/23 11:54:18;;;;;;;;;;;;;;;18.24;43.68;103084.47;5123947;28;19916;-58
2022/03/23 11:56:51;;;;;;;;;;;;;;;18.28;43.74;103085.13;5126655;28;19911;-58
2022/03/23 11:59:18;;;;;;;;;;;;;;;18.30;43.53;103085.84;5115716;28;19911;-58
2022/03/23 12:01:43;;;;;;;;;;;;;;;18.31;43.62;103082.19;5121146;28;19911;-58
2022/03/23 12:04:12;;;;;;;;;;;;;;;18.32;43.73;103083.94;5121058;28;19914;-58
2022/03/23 12:06:39;;;;;;;;;;;;;;;18.32;43.61;103078.53;5126297;27;19919;-58
2022/03/23 12:09:04;;;;;;;;;;;;;;;18.33;43.80;103074.88;5126866;28;19981;-58
2022/03/23 12:11:34;;;;;;;;;;;;;;;18.33;43.79;103070.34;5124950;28;20036;-58
2022/03/23 12:13:59;;;;;;;;;;;;;;;18.33;43.60;103061.41;5121581;28;19916;-58
2022/03/23 12:16:43;;;;;;;;;;;;;;;18.34;43.97;103068.50;5118383;27;19977;-58
2022/03/23 12:19:10;;;;;;;;;;;;;;;18.34;43.70;103055.88;5123313;28;19911;-57
2022/03/23 12:21:40;;;;;;;;;;;;;;;18.36;43.93;103055.81;5125126;28;19920;-58
2022/03/23 12:24:13;;;;;;;;;;;;;;;18.36;43.89;103059.34;5126306;28;20010;-57
2022/03/23 12:26:39;;;;;;;;;;;;;;;18.38;43.88;103053.84;5126180;28;19963;-57
2022/03/23 12:29:09;;;;;;;;;;;;;;;18.40;43.68;103057.28;5127052;28;19919;-53
2022/03/23 12:31:38;;;;;;;;;;;;;;;18.40;43.76;103054.59;5126698;28;19957;-57
2022/03/23 12:34:08;;;;;;;;;;;;;;;18.42;43.54;103049.94;5126973;28;19926;-56
2022/03/23 12:36:59;;;;;;;;;;;;;;;18.43;43.53;103052.50;5108460;28;19912;-57
2022/03/23 12:39:37;;;;;;;;;;;;;;;18.45;43.58;103047.91;5109637;28;19923;-56
2022/03/23 12:42:12;;;;;;;;;;;;;;;18.47;43.66;103047.78;5126524;28;19918;-56
2022/03/23 12:44:37;;;;;;;;;;;;;;;18.50;43.57;103047.56;5126696;28;20002;-57
2022/03/23 12:47:04;;;;;;;;;;;;;;;18.53;43.71;103039.25;5126501;28;19907;-56
2022/03/23 12:58:04;;;;;;;;;;;;;;;18.65;43.66;103032.94;5126516;28;19919;-58